Lanzarote > ESTACION METEOROLÓGICA Yaiza

DATOS ACTUALES Online

Ultima actulizacion 44 minutos

16.3 ºC

Temperatura

43

Humedad (%)

Presión (mb)

0

Precipitación (mm)

52.9 SO

Viento (Km/h)

DATOS DIARIOS

Temperatura últimas 24 horas (ºC)

Humedad últimas 24 horas (%)

Presión atmosférica últimas 24 horas (mb)

Precipitaciones últimas 23 horas (mm)

Viento últimas 24 horas (Km/h)

Hora Temperatura (°C) ºC Precipitación (mm) mm Presión (mb) mb Humedad (%) % Viento (Km/h) km/h
19 - 10:00 14.4 0 0 65 55.9 SO
19 - 11:00 14.6 0 0 59 56.1 SO
19 - 12:00 14.4 0 0 75 50.8 SO
19 - 13:00 14.2 0 0 76 57.3 SO
19 - 14:00 14.1 0 0 78 46.4 SO
19 - 15:00 14.7 0 0 73 44.7 SO
19 - 16:00 15.1 0 0 70 47.5 SO
19 - 17:00 15.1 0 0 68 44.6 SO
19 - 18:00 15 0 0 69 41.2 SO
19 - 19:00 15 0 0 64 33.9 SO
19 - 20:00 14.7 0 0 67 31.7 SO
19 - 21:00 15.3 0 0 62 29.5 SO
19 - 22:00 15.3 0 0 65 31.6 SO
19 - 23:00 15.6 0 0 57 35.5 O
20 - 00:00 16.2 0 0 48 43.7 SO
20 - 01:00 15.6 0 0 51 39.9 SO
20 - 02:00 15.4 0 0 52 43.1 SO
20 - 03:00 15.9 0 0 46 49.8 SO
20 - 04:00 15.2 0 0 47 51 SO
20 - 05:00 15.2 0 0 45 47.2 SO
20 - 06:00 15.3 0 0 45 52.5 SO
20 - 07:00 15.3 0 0 45 51.1 SO
20 - 08:00 15.4 0 0 46 49 SO
20 - 09:00 16.3 0 0 43 52.9 SO
20 - 10:00
Apalmet utiliza cookies propias y de terceros para mejorar la usabilidad y la experiencia web. Política de cookies.